Time;durP1;ratioP1;P1;durP2;ratioP2;P2;SDS_P1;SDS_P2;PMS_P1;PMS_P2;Temp;Humidity;BMP_temperature;BMP_pressure;BME280_temperature;BME280_humidity;BME280_pressure;Samples;Min_cycle;Max_cycle;Signal;HPM_P1;HPM_P2
2021/05/29 00:00:48;;;;;;;10.63;9.60;;;17.90;60.20;;;;;;4951828;29;20186;-81
2021/05/29 00:03:14;;;;;;;10.52;9.50;;;17.80;60.10;;;;;;4951627;28;20395;-81
2021/05/29 00:05:41;;;;;;;11.73;10.50;;;17.80;60.10;;;;;;4951738;28;20391;-83
2021/05/29 00:08:08;;;;;;;12.20;11.02;;;17.80;60.20;;;;;;4951900;28;20032;-82
2021/05/29 00:10:35;;;;;;;11.13;10.05;;;17.80;60.20;;;;;;4952458;29;20039;-79
2021/05/29 00:13:01;;;;;;;11.55;10.55;;;17.70;60.10;;;;;;4934622;29;20435;-81
2021/05/29 00:15:29;;;;;;;10.57;9.68;;;17.70;60.10;;;;;;4951306;28;20035;-81
2021/05/29 00:17:55;;;;;;;11.38;10.20;;;17.70;60.20;;;;;;4951390;29;20030;-80
2021/05/29 00:20:21;;;;;;;10.63;9.73;;;17.70;60.20;;;;;;4934383;29;20035;-80
2021/05/29 00:22:48;;;;;;;11.65;10.57;;;17.70;60.30;;;;;;4951774;28;20483;-81
2021/05/29 00:25:15;;;;;;;12.82;10.82;;;17.60;60.70;;;;;;4951949;28;20035;-81
2021/05/29 00:27:41;;;;;;;11.40;10.40;;;17.60;60.20;;;;;;4951592;28;20122;-79
2021/05/29 00:30:10;;;;;;;11.45;10.23;;;17.60;60.20;;;;;;4934124;28;20186;-81
2021/05/29 00:32:38;;;;;;;11.20;10.13;;;17.50;60.10;;;;;;4951969;28;20027;-82
2021/05/29 00:35:05;;;;;;;11.57;10.40;;;17.60;60.30;;;;;;4951471;28;20435;-82
2021/05/29 00:37:30;;;;;;;11.88;10.77;;;17.50;60.20;;;;;;4951603;28;20032;-81
2021/05/29 00:39:56;;;;;;;12.25;11.05;;;17.50;60.20;;;;;;4950953;29;20046;-80
2021/05/29 00:42:22;;;;;;;12.63;11.10;;;17.50;60.30;;;;;;4951066;29;20027;-80
2021/05/29 00:44:58;;;;;;;11.88;10.60;;;17.40;60.10;;;;;;4950164;29;20039;-83
2021/05/29 00:47:26;;;;;;;12.00;10.85;;;17.50;60.50;;;;;;4943974;29;20502;-80
2021/05/29 00:49:53;;;;;;;11.73;10.63;;;17.40;60.30;;;;;;4929907;28;20179;-81
2021/05/29 00:52:22;;;;;;;13.07;10.43;;;17.40;60.30;;;;;;4951054;28;20503;-81
2021/05/29 00:54:49;;;;;;;11.90;10.75;;;17.40;60.30;;;;;;4933901;29;20128;-82
2021/05/29 00:57:16;;;;;;;10.60;9.65;;;17.40;60.30;;;;;;4951043;28;20042;-82
2021/05/29 00:59:42;;;;;;;12.15;10.95;;;17.40;60.40;;;;;;4937541;28;20036;-82
2021/05/29 01:02:13;;;;;;;11.07;9.88;;;17.40;60.40;;;;;;4896110;29;20573;-81
2021/05/29 01:04:41;;;;;;;11.10;10.05;;;17.40;60.50;;;;;;4928862;29;20435;-81
2021/05/29 01:07:13;;;;;;;11.10;10.15;;;17.30;60.30;;;;;;4933562;29;20122;-77
2021/05/29 01:09:41;;;;;;;12.52;11.23;;;17.30;60.40;;;;;;4951189;28;20046;-79
2021/05/29 01:12:09;;;;;;;11.15;10.15;;;17.30;60.40;;;;;;4950807;28;21715;-82
2021/05/29 01:14:41;;;;;;;11.93;10.65;;;17.30;60.40;;;;;;4932869;28;20050;-80
2021/05/29 01:17:07;;;;;;;11.27;10.07;;;17.20;60.30;;;;;;4933513;29;20042;-80
2021/05/29 01:19:33;;;;;;;10.57;9.48;;;17.30;60.50;;;;;;4933192;28;20027;-79
2021/05/29 01:22:03;;;;;;;11.35;10.20;;;17.20;60.40;;;;;;4913807;29;20189;-80
2021/05/29 01:24:29;;;;;;;11.07;10.05;;;17.20;60.40;;;;;;4946590;29;20318;-82
2021/05/29 01:26:55;;;;;;;11.73;10.48;;;17.20;60.40;;;;;;4933067;29;20090;-81
2021/05/29 01:29:21;;;;;;;11.05;9.63;;;17.20;60.50;;;;;;4913168;29;20035;-83
2021/05/29 01:31:51;;;;;;;10.88;9.68;;;17.10;60.40;;;;;;4927703;29;20027;-81
2021/05/29 01:34:21;;;;;;;10.48;9.52;;;17.10;60.40;;;;;;4899758;29;20050;-79
2021/05/29 01:36:48;;;;;;;11.18;9.60;;;17.10;60.40;;;;;;4932780;29;20118;-81
2021/05/29 01:39:14;;;;;;;11.70;10.50;;;17.10;60.50;;;;;;4934139;29;20031;-81
2021/05/29 01:41:40;;;;;;;10.25;9.35;;;17.10;60.50;;;;;;4932413;29;20036;-80
2021/05/29 01:44:10;;;;;;;10.75;9.85;;;17.10;60.50;;;;;;4915798;29;20028;-80
2021/05/29 01:46:36;;;;;;;10.80;9.57;;;17.00;60.40;;;;;;4931938;29;20454;-79
2021/05/29 01:49:02;;;;;;;10.25;9.25;;;17.00;60.50;;;;;;4935603;29;20032;-79
2021/05/29 01:51:28;;;;;;;11.15;10.15;;;17.00;61.00;;;;;;4935659;29;20071;-79
2021/05/29 01:53:55;;;;;;;11.02;9.48;;;17.00;60.50;;;;;;4935386;29;20503;-80
2021/05/29 01:56:21;;;;;;;10.95;9.88;;;17.00;60.60;;;;;;4918050;29;20056;-79
2021/05/29 01:58:47;;;;;;;10.32;9.32;;;17.00;60.60;;;;;;4918109;29;20058;-80
2021/05/29 02:01:15;;;;;;;11.25;9.50;;;16.90;60.50;;;;;;4917866;29;20055;-81
2021/05/29 02:03:44;;;;;;;9.63;8.73;;;16.90;60.50;;;;;;4935159;29;20042;-80
2021/05/29 02:06:12;;;;;;;11.43;10.43;;;16.90;60.50;;;;;;4934550;29;20043;-80
2021/05/29 02:08:38;;;;;;;10.13;9.13;;;16.90;60.60;;;;;;4935025;29;20027;-81
2021/05/29 02:11:05;;;;;;;11.35;10.25;;;16.90;61.10;;;;;;4935080;29;20067;-81
2021/05/29 02:13:39;;;;;;;10.15;9.25;;;16.90;60.60;;;;;;4934621;29;20551;-80
2021/05/29 02:16:10;;;;;;;10.88;9.75;;;16.90;60.80;;;;;;4934774;29;20604;-80
2021/05/29 02:18:38;;;;;;;12.60;9.85;;;16.90;60.70;;;;;;4935009;29;20032;-81
2021/05/29 02:21:13;;;;;;;11.05;10.07;;;16.90;60.80;;;;;;4935391;29;20051;-80
2021/05/29 02:23:48;;;;;;;10.88;9.85;;;16.80;60.70;;;;;;4935257;29;20040;-81
2021/05/29 02:26:20;;;;;;;10.60;9.60;;;16.80;60.70;;;;;;4934741;29;20063;-81
2021/05/29 02:28:51;;;;;;;10.27;9.38;;;16.80;60.70;;;;;;4934743;29;20027;-81
2021/05/29 02:31:18;;;;;;;10.27;9.27;;;16.80;60.80;;;;;;4934904;29;20372;-80
2021/05/29 02:33:44;;;;;;;10.40;9.40;;;16.70;60.60;;;;;;4935212;29;20063;-81
2021/05/29 02:36:11;;;;;;;10.18;9.27;;;16.80;60.80;;;;;;4917821;29;20067;-81
2021/05/29 02:38:38;;;;;;;10.02;9.13;;;16.70;60.70;;;;;;4934665;29;20024;-81
2021/05/29 02:41:08;;;;;;;11.00;9.07;;;16.70;60.70;;;;;;4917481;29;20487;-80
2021/05/29 02:43:34;;;;;;;10.38;9.30;;;16.70;60.80;;;;;;4917585;29;20032;-82
2021/05/29 02:46:00;;;;;;;9.70;8.80;;;16.70;60.80;;;;;;4934391;29;20031;-80
2021/05/29 02:48:26;;;;;;;10.40;9.40;;;16.60;60.70;;;;;;4934313;29;20035;-80
2021/05/29 02:50:52;;;;;;;9.77;8.88;;;16.60;60.70;;;;;;4934596;29;20167;-81
2021/05/29 02:53:18;;;;;;;10.98;9.23;;;16.60;60.70;;;;;;4933877;29;20039;-80
2021/05/29 02:55:45;;;;;;;10.60;9.55;;;16.60;61.30;;;;;;4934278;29;20036;-81
2021/05/29 02:58:12;;;;;;;9.98;9.07;;;16.60;60.80;;;;;;4934125;29;20171;-81
2021/05/29 03:00:41;;;;;;;10.15;9.25;;;16.60;60.80;;;;;;4934188;29;20051;-80
2021/05/29 03:03:07;;;;;;;10.07;9.15;;;16.60;60.90;;;;;;4934152;29;20024;-80
2021/05/29 03:05:42;;;;;;;9.73;8.68;;;16.60;60.80;;;;;;4917010;29;20070;-80
2021/05/29 03:08:11;;;;;;;10.93;8.68;;;16.60;61.00;;;;;;4934244;29;20487;-81
2021/05/29 03:10:37;;;;;;;9.70;8.80;;;16.50;60.70;;;;;;4916819;29;20041;-80
2021/05/29 03:13:06;;;;;;;9.98;9.07;;;16.50;60.70;;;;;;4934117;29;20118;-81
2021/05/29 03:15:32;;;;;;;9.77;8.85;;;16.50;60.80;;;;;;4916821;29;20130;-80
2021/05/29 03:17:59;;;;;;;9.15;8.35;;;16.50;60.80;;;;;;4933121;29;20469;-81
2021/05/29 03:20:27;;;;;;;9.60;8.70;;;16.50;60.90;;;;;;4933717;29;20443;-79
2021/05/29 03:22:54;;;;;;;10.27;9.27;;;16.50;60.90;;;;;;4917007;29;20127;-81
2021/05/29 03:25:20;;;;;;;9.77;8.85;;;16.50;60.90;;;;;;4934545;29;20452;-81
2021/05/29 03:27:49;;;;;;;9.30;8.50;;;16.50;60.90;;;;;;4934004;29;20043;-80
2021/05/29 03:30:19;;;;;;;8.60;7.90;;;16.50;61.00;;;;;;4934094;29;20030;-81
2021/05/29 03:32:46;;;;;;;9.38;8.45;;;16.40;60.90;;;;;;4933560;29;20032;-80
2021/05/29 03:35:13;;;;;;;9.18;8.32;;;16.40;60.90;;;;;;4901052;29;20040;-80
2021/05/29 03:37:39;;;;;;;9.23;8.38;;;16.40;60.90;;;;;;4933594;29;20032;-81
2021/05/29 03:40:07;;;;;;;9.18;8.27;;;16.40;60.90;;;;;;4934247;29;20032;-80
2021/05/29 03:42:33;;;;;;;9.73;8.82;;;16.40;61.00;;;;;;4933799;29;20506;-80
2021/05/29 03:44:59;;;;;;;9.95;8.95;;;16.40;61.00;;;;;;4916906;29;20027;-80
2021/05/29 03:47:25;;;;;;;9.77;8.77;;;16.30;60.90;;;;;;4933547;29;20107;-79
2021/05/29 03:49:51;;;;;;;9.45;8.65;;;16.30;60.90;;;;;;4934021;29;20083;-81
2021/05/29 03:52:17;;;;;;;9.85;8.93;;;16.30;60.90;;;;;;4934242;29;20042;-84
2021/05/29 03:54:44;;;;;;;8.60;7.85;;;16.30;60.90;;;;;;4933629;29;20423;-80
2021/05/29 03:57:10;;;;;;;9.25;8.38;;;16.30;61.00;;;;;;4916609;29;20038;-80
2021/05/29 03:59:36;;;;;;;9.55;8.65;;;16.30;61.00;;;;;;4933725;29;20027;-81
2021/05/29 04:02:02;;;;;;;9.15;8.32;;;16.30;61.00;;;;;;4933135;29;20194;-80
2021/05/29 04:04:28;;;;;;;8.82;8.00;;;16.30;61.00;;;;;;4916934;29;20519;-80
2021/05/29 04:06:54;;;;;;;9.00;7.68;;;16.30;61.10;;;;;;4933556;29;20032;-82
2021/05/29 04:09:20;;;;;;;9.57;8.77;;;16.20;61.50;;;;;;4933335;29;20129;-81
2021/05/29 04:11:46;;;;;;;8.98;8.10;;;16.20;61.00;;;;;;4933188;29;20118;-80
2021/05/29 04:14:12;;;;;;;8.40;7.60;;;16.20;61.00;;;;;;4933745;29;20075;-81
2021/05/29 04:16:38;;;;;;;9.25;8.35;;;16.20;61.00;;;;;;4933242;29;20066;-79
2021/05/29 04:19:04;;;;;;;10.05;9.05;;;16.20;61.00;;;;;;4933218;29;20047;-81
2021/05/29 04:21:30;;;;;;;9.45;8.65;;;16.20;61.00;;;;;;4933371;29;20090;-81
2021/05/29 04:23:56;;;;;;;9.32;8.57;;;16.20;61.00;;;;;;4933600;29;20063;-80
2021/05/29 04:26:22;;;;;;;9.32;8.43;;;16.20;61.10;;;;;;4916765;29;20031;-80
2021/05/29 04:28:49;;;;;;;9.05;8.30;;;16.20;61.10;;;;;;4935289;29;20119;-79
2021/05/29 04:31:15;;;;;;;9.70;8.73;;;16.20;61.10;;;;;;4936725;29;20480;-83
2021/05/29 04:33:40;;;;;;;10.65;9.75;;;16.20;61.20;;;;;;4936735;29;20036;-79
2021/05/29 04:36:07;;;;;;;10.38;9.30;;;16.20;61.20;;;;;;4936947;29;20032;-81
2021/05/29 04:38:33;;;;;;;10.07;9.02;;;16.20;61.20;;;;;;4936835;29;20498;-78
2021/05/29 04:40:59;;;;;;;9.43;8.60;;;16.20;61.30;;;;;;4919988;29;20028;-79
2021/05/29 04:43:25;;;;;;;10.55;9.50;;;16.20;61.30;;;;;;4937088;29;20570;-81
2021/05/29 04:45:51;;;;;;;10.18;9.18;;;16.10;61.10;;;;;;4919328;29;20491;-82
2021/05/29 04:48:17;;;;;;;9.43;8.52;;;16.20;61.30;;;;;;4924350;29;20040;-82
2021/05/29 04:53:29;;;;;;;10.90;9.85;;;16.20;61.30;;;;;;4914073;29;20678;-82
2021/05/29 04:55:57;;;;;;;10.43;9.50;;;16.20;61.30;;;;;;4914047;29;20051;-80
2021/05/29 04:58:23;;;;;;;10.15;9.18;;;16.20;61.30;;;;;;4933127;28;20364;-80
2021/05/29 05:00:50;;;;;;;10.77;9.23;;;16.20;61.40;;;;;;4934313;29;20087;-79
2021/05/29 05:03:17;;;;;;;10.13;9.23;;;16.20;61.40;;;;;;4935046;29;20032;-77
2021/05/29 05:05:43;;;;;;;10.35;9.45;;;16.10;61.20;;;;;;4895898;29;20308;-82
2021/05/29 05:08:09;;;;;;;10.30;9.25;;;16.10;61.20;;;;;;4928256;28;20582;-81
2021/05/29 05:10:35;;;;;;;10.65;9.57;;;16.20;61.40;;;;;;4951054;29;20459;-79
2021/05/29 05:13:01;;;;;;;10.82;9.77;;;16.20;61.50;;;;;;4949980;28;20299;-81
2021/05/29 05:15:27;;;;;;;11.15;9.80;;;16.20;61.40;;;;;;4894727;29;20135;-79
2021/05/29 05:17:54;;;;;;;10.15;9.25;;;16.20;61.40;;;;;;4919679;28;20142;-80
2021/05/29 05:20:21;;;;;;;11.10;10.10;;;16.20;61.40;;;;;;4950450;28;20039;-78
2021/05/29 05:22:47;;;;;;;10.75;9.80;;;16.20;61.40;;;;;;4950278;28;20450;-79
2021/05/29 05:25:14;;;;;;;11.70;10.52;;;16.20;61.40;;;;;;4950361;28;20060;-80
2021/05/29 05:27:41;;;;;;;11.63;10.63;;;16.30;61.60;;;;;;4949979;29;20028;-78
2021/05/29 05:30:10;;;;;;;11.77;10.68;;;16.30;61.60;;;;;;4950398;29;20035;-79
2021/05/29 05:32:37;;;;;;;12.45;11.32;;;16.30;61.60;;;;;;4950506;28;20027;-78
2021/05/29 05:35:07;;;;;;;13.35;11.23;;;16.30;61.60;;;;;;4950675;28;20067;-81
2021/05/29 05:37:33;;;;;;;12.07;10.90;;;16.30;61.60;;;;;;4949961;28;20028;-81
2021/05/29 05:39:59;;;;;;;11.88;10.77;;;16.30;61.60;;;;;;4949839;28;20031;-78
2021/05/29 05:42:26;;;;;;;11.82;10.77;;;16.40;61.80;;;;;;4917076;29;20046;-81
2021/05/29 05:44:52;;;;;;;15.32;11.65;;;16.30;61.60;;;;;;4949892;28;20031;-80
2021/05/29 05:47:18;;;;;;;11.73;10.52;;;16.30;61.60;;;;;;4932802;29;20447;-80
2021/05/29 05:49:44;;;;;;;13.05;11.85;;;16.40;61.70;;;;;;4934549;29;20036;-81
2021/05/29 05:52:10;;;;;;;12.05;11.05;;;16.40;61.70;;;;;;4932309;29;20044;-80
2021/05/29 05:54:36;;;;;;;13.68;12.30;;;16.50;61.80;;;;;;4949855;28;20046;-85
2021/05/29 05:57:02;;;;;;;13.35;12.00;;;16.50;61.90;;;;;;4950210;28;20038;-81
2021/05/29 05:59:28;;;;;;;12.75;11.52;;;16.50;61.80;;;;;;4949791;28;20113;-82
2021/05/29 06:01:55;;;;;;;13.52;12.20;;;16.60;61.90;;;;;;4932599;29;20032;-81
2021/05/29 06:04:21;;;;;;;13.38;12.05;;;16.60;61.90;;;;;;4932113;28;20035;-80
2021/05/29 06:06:47;;;;;;;13.90;12.63;;;16.70;62.00;;;;;;4950026;28;20114;-81
2021/05/29 06:09:13;;;;;;;13.90;12.38;;;16.70;61.90;;;;;;4942928;29;20616;-82
2021/05/29 06:11:40;;;;;;;13.20;12.00;;;16.80;62.00;;;;;;4930942;29;20628;-79
2021/05/29 06:19:18;;;;;;;14.10;12.80;;;16.90;62.10;;;;;;4943618;29;20031;-77
2021/05/29 06:21:48;;;;;;;13.90;12.50;;;17.10;62.40;;;;;;4931636;29;20083;-79
2021/05/29 06:24:19;;;;;;;15.55;14.13;;;17.20;62.50;;;;;;4945808;29;20047;-78
2021/05/29 06:26:47;;;;;;;16.17;14.05;;;17.30;62.60;;;;;;4931990;29;20115;-78
2021/05/29 06:29:13;;;;;;;15.55;14.05;;;17.40;62.50;;;;;;4949134;28;20041;-78
2021/05/29 06:31:39;;;;;;;14.48;13.18;;;17.50;62.50;;;;;;4949429;28;20035;-78
2021/05/29 06:34:05;;;;;;;14.05;12.63;;;17.60;62.50;;;;;;4948515;28;20121;-78
2021/05/29 06:36:32;;;;;;;15.57;14.25;;;17.80;62.70;;;;;;4948576;28;20031;-77
2021/05/29 06:38:59;;;;;;;14.63;13.27;;;17.90;62.70;;;;;;4932027;29;20063;-78
2021/05/29 06:41:25;;;;;;;14.98;13.35;;;18.00;62.60;;;;;;4948809;29;20035;-78
2021/05/29 06:43:51;;;;;;;14.38;13.13;;;18.10;62.60;;;;;;4948869;29;20042;-78
2021/05/29 06:46:18;;;;;;;15.70;14.18;;;18.20;62.70;;;;;;4932115;29;20023;-77
2021/05/29 06:48:44;;;;;;;13.88;12.57;;;18.20;62.50;;;;;;4948306;28;20035;-80
2021/05/29 06:51:57;;;;;;;14.95;13.40;;;18.30;62.50;;;;;;4949292;28;20079;-80
2021/05/29 06:54:05;;;;;;;15.63;14.18;;;18.40;62.60;;;;;;4935629;28;20094;-78
2021/05/29 06:59:15;;;;;;;14.93;13.57;;;18.50;62.50;;;;;;4947991;28;20034;-78
2021/05/29 07:01:41;;;;;;;14.95;13.63;;;18.60;62.60;;;;;;4948281;28;20039;-79
2021/05/29 07:04:07;;;;;;;18.65;16.77;;;18.70;62.70;;;;;;4948329;29;20074;-78
2021/05/29 07:06:33;;;;;;;16.60;15.00;;;18.80;62.90;;;;;;4948514;28;20031;-77
2021/05/29 07:08:59;;;;;;;17.27;15.50;;;18.90;63.00;;;;;;4915745;29;20039;-79
2021/05/29 07:11:25;;;;;;;20.05;18.02;;;19.00;63.20;;;;;;4948987;28;20427;-79
2021/05/29 07:13:51;;;;;;;19.23;17.50;;;19.10;63.20;;;;;;4948720;28;20035;-77
2021/05/29 07:16:17;;;;;;;19.83;17.92;;;19.20;63.30;;;;;;4949385;29;20061;-78
2021/05/29 07:18:45;;;;;;;19.95;17.92;;;19.40;63.50;;;;;;4931800;29;20562;-78
2021/05/29 07:21:13;;;;;;;19.45;17.65;;;19.50;63.50;;;;;;4932540;29;20055;-78
2021/05/29 07:23:39;;;;;;;18.92;17.17;;;19.60;63.50;;;;;;4934601;29;20035;-79
2021/05/29 07:26:05;;;;;;;18.85;16.95;;;19.70;63.60;;;;;;4951043;28;20063;-80
2021/05/29 07:28:32;;;;;;;19.42;17.63;;;19.80;63.60;;;;;;4949539;29;20038;-79
2021/05/29 07:30:59;;;;;;;18.25;16.65;;;20.00;63.70;;;;;;4931631;28;20035;-77
2021/05/29 07:33:26;;;;;;;19.13;17.30;;;20.10;63.60;;;;;;4931362;29;20094;-77
2021/05/29 07:35:53;;;;;;;19.25;17.35;;;20.30;63.70;;;;;;4931811;28;20035;-77
2021/05/29 07:38:20;;;;;;;19.30;17.52;;;20.40;63.60;;;;;;4948646;28;20179;-79
2021/05/29 07:40:46;;;;;;;18.38;16.55;;;20.50;63.50;;;;;;4948372;28;20207;-79
2021/05/29 07:43:12;;;;;;;20.42;17.63;;;20.60;63.50;;;;;;4948191;28;20037;-79
2021/05/29 07:45:38;;;;;;;18.15;16.23;;;20.80;63.60;;;;;;4948597;28;20411;-77
2021/05/29 07:48:05;;;;;;;19.23;17.17;;;20.90;63.50;;;;;;4931431;29;20083;-76
2021/05/29 07:50:31;;;;;;;18.30;16.52;;;21.10;63.60;;;;;;4948743;28;20027;-77
2021/05/29 07:52:57;;;;;;;18.88;16.95;;;21.30;63.40;;;;;;4948377;28;20038;-79
2021/05/29 07:55:23;;;;;;;19.55;17.63;;;21.60;63.40;;;;;;4948833;28;20035;-78
2021/05/29 07:57:49;;;;;;;18.80;16.95;;;21.80;63.50;;;;;;4948863;28;20040;-78
2021/05/29 08:00:22;;;;;;;18.67;16.77;;;21.90;63.20;;;;;;4931977;29;20043;-78
2021/05/29 08:02:48;;;;;;;18.30;16.60;;;22.10;63.20;;;;;;4949565;28;20028;-80
2021/05/29 08:05:19;;;;;;;17.27;15.50;;;22.30;63.20;;;;;;4954584;28;20054;-79
2021/05/29 08:07:46;;;;;;;18.58;16.77;;;22.50;63.20;;;;;;4954739;29;20557;-78
2021/05/29 08:10:13;;;;;;;16.20;14.80;;;22.90;63.10;;;;;;4935314;28;20035;-81
2021/05/29 08:12:39;;;;;;;16.75;15.27;;;23.10;62.80;;;;;;4936038;29;20042;-80
2021/05/29 08:15:07;;;;;;;16.88;15.30;;;23.40;62.70;;;;;;4952997;29;20138;-82
2021/05/29 08:17:33;;;;;;;16.88;15.35;;;23.70;62.60;;;;;;4953412;28;20031;-81
2021/05/29 08:19:59;;;;;;;17.05;15.43;;;23.90;62.50;;;;;;4951700;28;20047;-81
2021/05/29 08:22:25;;;;;;;17.08;15.27;;;24.30;62.60;;;;;;4934548;28;20515;-81
2021/05/29 08:24:51;;;;;;;15.80;14.43;;;24.70;62.30;;;;;;4952542;28;20038;-80
2021/05/29 08:27:17;;;;;;;14.73;13.40;;;25.10;62.00;;;;;;4952318;28;20031;-80
2021/05/29 08:29:43;;;;;;;15.18;13.70;;;25.20;61.50;;;;;;4951575;28;20479;-80
2021/05/29 08:32:09;;;;;;;15.25;13.23;;;25.30;61.20;;;;;;4952029;28;20070;-81
2021/05/29 08:34:35;;;;;;;15.10;13.55;;;25.30;61.10;;;;;;4951994;28;20067;-81
2021/05/29 08:37:01;;;;;;;13.82;12.63;;;25.30;61.10;;;;;;4952116;28;20133;-81
2021/05/29 08:39:27;;;;;;;13.23;12.02;;;25.30;61.10;;;;;;4951373;29;20050;-81
2021/05/29 08:41:54;;;;;;;14.55;13.18;;;25.30;61.10;;;;;;4951797;29;20039;-80
2021/05/29 08:44:20;;;;;;;14.13;12.82;;;25.30;61.20;;;;;;4951625;28;20035;-80
2021/05/29 08:46:48;;;;;;;13.48;12.27;;;25.30;61.10;;;;;;4934363;29;20447;-81
2021/05/29 08:49:14;;;;;;;13.35;12.18;;;25.40;61.00;;;;;;4951688;28;20463;-81
2021/05/29 08:51:41;;;;;;;13.60;12.25;;;25.40;60.90;;;;;;4951341;28;20042;-82
2021/05/29 08:54:07;;;;;;;13.30;12.05;;;25.60;60.90;;;;;;4933725;29;20147;-82
2021/05/29 08:56:34;;;;;;;13.35;12.05;;;25.70;60.50;;;;;;4934416;29;20066;-81
2021/05/29 08:59:01;;;;;;;12.43;11.32;;;25.90;60.30;;;;;;4938309;29;20400;-82
2021/05/29 09:01:27;;;;;;;11.98;11.05;;;26.10;60.00;;;;;;4932164;29;20461;-83
2021/05/29 09:04:04;;;;;;;12.40;11.25;;;26.30;59.50;;;;;;4946778;29;20035;-81
2021/05/29 09:06:29;;;;;;;11.98;10.70;;;26.50;59.10;;;;;;4951237;29;20027;-80
2021/05/29 09:09:01;;;;;;;13.93;11.73;;;26.70;58.90;;;;;;4951580;29;20034;-81
2021/05/29 09:11:49;;;;;;;12.23;11.15;;;26.90;58.60;;;;;;4951184;28;20041;-81
2021/05/29 09:14:24;;;;;;;10.95;9.95;;;27.10;58.40;;;;;;4949725;28;20039;-81
2021/05/29 09:17:17;;;;;;;11.18;10.07;;;27.30;58.20;;;;;;4934193;29;20031;-81
2021/05/29 09:20:07;;;;;;;10.60;9.73;;;27.50;57.90;;;;;;4950909;28;20178;-80
2021/05/29 09:22:41;;;;;;;9.95;9.05;;;27.70;57.80;;;;;;4950077;28;20506;-80
2021/05/29 09:25:11;;;;;;;10.45;9.55;;;27.90;57.30;;;;;;4933000;29;20475;-80
2021/05/29 09:27:56;;;;;;;9.80;8.90;;;28.10;57.10;;;;;;4950710;28;20479;-80
2021/05/29 09:30:50;;;;;;;9.45;8.55;;;28.20;56.80;;;;;;4950452;28;20035;-80
2021/05/29 09:33:16;;;;;;;;;;;28.50;56.50;;;;;;4950269;28;20027;-79
2021/05/29 09:35:46;;;;;;;;;;;28.80;56.50;;;;;;4951032;28;19918;-80
2021/05/29 09:38:12;;;;;;;;;;;29.00;56.40;;;;;;4951048;28;19957;-80
2021/05/29 09:40:37;;;;;;;;;;;29.20;56.40;;;;;;4951145;28;19965;-88
2021/05/29 09:43:07;;;;;;;;;;;29.20;56.50;;;;;;4901557;29;19910;-82
2021/05/29 09:45:33;;;;;;;;;;;29.20;56.60;;;;;;4951174;29;20362;-82
2021/05/29 09:48:12;;;;;;;;;;;29.20;56.90;;;;;;4932965;28;19969;-82
2021/05/29 09:50:58;;;;;;;;;;;29.20;57.20;;;;;;4934160;29;19925;-80
2021/05/29 09:53:28;;;;;;;;;;;29.20;57.30;;;;;;4950842;29;19910;-83
2021/05/29 09:55:54;;;;;;;;;;;29.20;57.40;;;;;;4933501;29;19914;-81
2021/05/29 09:58:20;;;;;;;;;;;29.30;57.40;;;;;;4950246;28;20241;-81
2021/05/29 10:00:47;;;;;;;;;;;29.50;57.50;;;;;;4950395;28;19915;-82
2021/05/29 10:03:13;;;;;;;;;;;29.60;57.40;;;;;;4933315;28;19993;-80
2021/05/29 10:05:41;;;;;;;;;;;29.70;57.30;;;;;;4950622;28;19945;-81
2021/05/29 10:08:11;;;;;;;;;;;29.80;57.20;;;;;;4950398;28;19990;-82
2021/05/29 10:10:37;;;;;;;;;;;29.90;57.20;;;;;;4950771;28;19917;-82
2021/05/29 10:13:03;;;;;;;;;;;30.00;57.20;;;;;;4933140;29;19910;-83
2021/05/29 10:15:29;;;;;;;;;;;30.00;57.20;;;;;;4950790;28;19946;-83
2021/05/29 10:17:56;;;;;;;;;;;30.10;57.20;;;;;;4933123;28;19914;-83
2021/05/29 10:20:22;;;;;;;;;;;30.20;57.20;;;;;;4950223;28;19974;-85
2021/05/29 10:22:48;;;;;;;;;;;30.30;57.10;;;;;;4916892;29;19926;-84
2021/05/29 10:25:15;;;;;;;;;;;30.40;57.10;;;;;;4934008;28;20361;-84
2021/05/29 10:27:45;;;;;;;;;;;30.50;57.20;;;;;;4933645;29;20400;-83
2021/05/29 10:30:12;;;;;;;;;;;30.60;57.00;;;;;;4950565;28;19917;-83
2021/05/29 10:32:38;;;;;;;;;;;30.80;57.00;;;;;;4950405;28;20009;-83
2021/05/29 10:35:08;;;;;;;;;;;30.90;56.80;;;;;;4933525;28;19949;-83
2021/05/29 10:37:34;;;;;;;;;;;30.90;56.80;;;;;;4949866;28;19918;-82
2021/05/29 10:40:20;;;;;;;;;;;31.00;56.90;;;;;;4932070;29;20023;-83
2021/05/29 10:42:49;;;;;;;;;;;31.00;56.90;;;;;;4931693;29;19915;-82
2021/05/29 10:45:16;;;;;;;;;;;31.20;56.80;;;;;;4933170;29;19921;-82
2021/05/29 10:48:01;;;;;;;;;;;31.40;56.70;;;;;;4950588;28;20316;-82
2021/05/29 10:53:39;;;;;;;;;;;31.60;56.40;;;;;;4932268;29;19921;-84
2021/05/29 10:56:17;;;;;;;;;;;31.70;56.30;;;;;;4935527;28;20255;-83
2021/05/29 10:59:02;;;;;;;;;;;31.90;56.40;;;;;;4923869;29;20005;-82
2021/05/29 11:01:35;;;;;;;;;;;31.90;56.40;;;;;;4932120;28;19910;-82
2021/05/29 11:04:17;;;;;;;;;;;31.90;56.40;;;;;;4932447;29;19917;-83
2021/05/29 11:06:43;;;;;;;;;;;32.00;56.40;;;;;;4932020;29;20430;-82
2021/05/29 11:09:14;;;;;;;;;;;32.10;56.40;;;;;;4916959;29;19915;-82
2021/05/29 11:11:47;;;;;;;;;;;32.20;56.40;;;;;;4950306;28;19965;-85
2021/05/29 11:14:14;;;;;;;;;;;32.30;56.30;;;;;;4916859;29;19953;-85
2021/05/29 11:17:03;;;;;;;;;;;32.30;56.20;;;;;;4949337;29;19926;-85
2021/05/29 11:19:38;;;;;;;;;;;32.50;56.20;;;;;;4922027;29;19910;-85
2021/05/29 11:22:14;;;;;;;;;;;32.50;56.10;;;;;;4948555;28;20350;-83
2021/05/29 11:24:41;;;;;;;;;;;32.50;56.10;;;;;;4950431;28;19951;-81
2021/05/29 11:27:08;;;;;;;;;;;32.50;56.00;;;;;;4943049;28;19917;-82
2021/05/29 11:29:53;;;;;;;;;;;32.50;56.70;;;;;;4946247;29;19910;-82
2021/05/29 11:32:47;;;;;;;;;;;32.50;56.20;;;;;;4948278;28;19916;-83
2021/05/29 11:35:17;;;;;;;;;;;32.50;56.20;;;;;;4949490;28;19922;-86
2021/05/29 11:38:07;;;;;;;;;;;32.60;56.20;;;;;;4934903;29;20618;-87
2021/05/29 11:40:39;;;;;;;;;;;32.60;56.10;;;;;;4910985;28;20351;-88
2021/05/29 11:43:05;;;;;;;;;;;32.70;56.10;;;;;;4920800;29;19906;-88
2021/05/29 11:45:31;;;;;;;;;;;32.70;56.00;;;;;;4920993;28;20354;-87
2021/05/29 11:47:57;;;;;;;;;;;32.80;56.10;;;;;;4920270;29;19998;-88
2021/05/29 11:50:23;;;;;;;;;;;32.80;56.10;;;;;;4921371;29;19987;-89
2021/05/29 11:52:50;;;;;;;;;;;32.80;56.10;;;;;;4921188;29;20005;-89
2021/05/29 11:55:16;;;;;;;;;;;32.90;56.10;;;;;;4923711;29;19965;-88
2021/05/29 11:57:57;;;;;;;;;;;32.90;56.10;;;;;;4936358;29;20029;-89
2021/05/29 12:00:23;;;;;;;;;;;33.10;56.00;;;;;;4937978;29;19917;-93
2021/05/29 12:02:51;;;;;;;;;;;33.30;55.70;;;;;;4907319;29;19922;-93
2021/05/29 12:05:18;;;;;;;;;;;33.30;55.60;;;;;;4927542;29;20385;-89
2021/05/29 12:07:59;;;;;;;;;;;33.30;55.60;;;;;;4938309;29;19918;-92
2021/05/29 12:10:25;;;;;;;;;;;33.40;55.60;;;;;;4937913;29;20358;-88
2021/05/29 12:12:51;;;;;;;;;;;33.40;55.50;;;;;;4906000;29;20374;-89
2021/05/29 12:15:17;;;;;;;;;;;33.30;55.60;;;;;;4935755;29;19922;-87
2021/05/29 12:17:45;;;;;;;;;;;33.30;55.70;;;;;;4935052;28;19978;-87
2021/05/29 12:20:29;;;;;;;;;;;33.40;55.80;;;;;;4919800;29;19910;-85
2021/05/29 12:23:03;;;;;;;;;;;33.40;55.70;;;;;;4937378;29;20386;-86
2021/05/29 12:25:29;;;;;;;;;;;33.70;55.70;;;;;;4954895;28;19932;-87
2021/05/29 12:27:55;;;;;;;;;;;33.90;55.50;;;;;;4920897;28;19910;-88
2021/05/29 12:30:23;;;;;;;;;;;33.90;55.20;;;;;;4936697;29;19965;-86
2021/05/29 12:32:49;;;;;;;;;;;33.90;55.30;;;;;;4954192;28;19911;-88
2021/05/29 12:35:27;;;;;;;;;;;33.90;55.20;;;;;;4921863;29;20218;-89
2021/05/29 12:37:53;;;;;;;;;;;34.00;55.60;;;;;;4954635;28;19914;-87
2021/05/29 12:40:19;;;;;;;;;;;34.10;55.40;;;;;;4958115;28;20289;-91
2021/05/29 12:42:49;;;;;;;;;;;34.20;55.80;;;;;;4919004;29;19914;-84
2021/05/29 12:45:24;;;;;;;;;;;34.00;54.90;;;;;;4952715;28;20164;-85
2021/05/29 12:47:54;;;;;;;;;;;33.60;55.10;;;;;;4934263;28;19969;-85
2021/05/29 12:50:22;;;;;;;;;;;33.20;55.60;;;;;;4934464;29;20119;-82
2021/05/29 12:52:48;;;;;;;;;;;32.70;56.00;;;;;;4919149;29;19914;-83
2021/05/29 12:55:22;;;;;;;;;;;32.40;56.20;;;;;;4950917;28;19918;-83
2021/05/29 12:57:48;;;;;;;;;;;32.10;56.40;;;;;;4934080;29;19949;-83
2021/05/29 13:00:22;;;;;;;;;;;31.80;56.70;;;;;;4951655;28;19969;-83
2021/05/29 13:08:34;;;;;;;;;;;31.30;56.70;;;;;;4951397;28;19914;-82
2021/05/29 13:11:01;;;;;;;;;;;31.20;56.70;;;;;;4950857;28;19925;-82
2021/05/29 13:13:27;;;;;;;;;;;31.00;56.70;;;;;;4951503;28;19918;-84
2021/05/29 13:16:03;;;;;;;;;;;30.90;56.60;;;;;;4951137;28;19922;-81
2021/05/29 13:18:34;;;;;;;;;;;30.80;56.60;;;;;;4950944;28;19966;-83
2021/05/29 13:21:01;;;;;;;;;;;30.70;56.50;;;;;;4950831;28;20009;-82
2021/05/29 13:23:38;;;;;;;;;;;30.50;56.40;;;;;;4934258;29;20251;-83
2021/05/29 13:26:05;;;;;;;;;;;30.40;56.40;;;;;;4934381;28;19914;-83